Stations météo

réclame
Mon MeteoGroup
Kahler Asten, Allemagne (10427): Température de l'air & dewpoint: 15.02.2018 12:00:00 - 21.02.2018 12:00:00 (CET)Kahler Asten, Allemagne (10427): Température de l'air 5cm & Température de l'air -5cm: 15.02.2018 12:00:00 - 21.02.2018 12:00:00 (CET)Kahler Asten, Allemagne (10427): Température de l'air -20cm & Température de l'air -100cm: 15.02.2018 12:00:00 - 21.02.2018 12:00:00 (CET)Kahler Asten, Allemagne (10427): Vitesse du vent & gusts: 15.02.2018 12:00:00 - 21.02.2018 12:00:00 (CET)Kahler Asten, Allemagne (10427): Direction du vent: 15.02.2018 12:00:00 - 21.02.2018 12:00:00 (CET)Kahler Asten, Allemagne (10427): visibility: 15.02.2018 12:00:00 - 21.02.2018 12:00:00 (CET)Kahler Asten, Allemagne (10427): Ensoleillement: 15.02.2018 12:00:00 - 21.02.2018 12:00:00 (CET)Kahler Asten, Allemagne (10427): Quantités de précipitations: 15.02.2018 12:00:00 - 21.02.2018 12:00:00 (CET)
Date & Time tt [°C] td [°C] tt 5cm [°C] tt -5cm [°C] tt -20cm [°C] tt -100cm [°C] ff [km/h] ff [knt] fx [km/h] fx [knt] dd vv [km] sd [min] rr [mm]
21.02.2018 12:00:00 -3,8 -8,3 -0,8 0,1 0,5 2,2 16 9 42 23 E 6 60 0,0
21.02.2018 11:00:00 -4,8 -8,1 -0,8 0,1 0,5 2,2 24 13 40 22 E 5 60 0,0
21.02.2018 10:00:00 -5,4 -8,0 -0,9 0,1 0,5 2,2 21 12 35 19 E 5 60 0,0
21.02.2018 09:00:00 -6,3 -8,1 -0,8 0,1 0,5 2,2 24 13 37 20 ENE 4,6 51 0,0
21.02.2018 08:00:00 -6,6 -8,0 -0,8 0,1 0,5 2,2 22 12 32 17 NE 3,2 0 0,0
21.02.2018 07:00:00 -6,5 -7,7 -0,8 0,1 0,5 2,2 22 12 29 16 NNE 2,5 0 0,0
21.02.2018 06:00:00 -6,2 -7,6 -0,7 0,1 0,5 2,2 22 12 33 18 ENE 3,0 0 0,0
21.02.2018 05:00:00 -5,7 -7,1 -0,7 0,1 0,5 2,2 24 13 38 20 ENE 3,1 0 0,0
21.02.2018 04:00:00 -5,2 -6,7 -0,8 0,1 0,5 2,2 25 13 36 19 ENE 3,1 0 0,0
21.02.2018 03:00:00 -4,9 -6,8 -0,8 0,1 0,5 2,2 18 10 29 15 ENE 4,4 0 0,0
21.02.2018 02:00:00 -4,9 -6,8 -0,8 0,1 0,5 2,2 18 10 28 15 E 4,6 0 0,0
21.02.2018 01:00:00 -4,8 -6,9 -0,7 0,1 0,5 2,2 19 10 33 18 E 6 0 0,0
21.02.2018 00:00:00 -5,1 -7,1 -0,6 0,1 0,5 2,2 17 9 40 22 E 4,8 0 0,0
20.02.2018 23:00:00 -5,4 -7,3 -0,6 0,1 0,5 2,2 27 15 42 23 E 4,1 0 0,0
20.02.2018 22:00:00 -5,2 -6,7 -0,5 0,1 0,5 2,2 24 13 40 22 E 2,6 0 0,0
20.02.2018 21:00:00 -5,0 -7,4 -0,5 0,1 0,5 2,2 23 13 41 22 NE 4,4 0 0,0
20.02.2018 20:00:00 -4,2 -6,6 -0,4 0,1 0,5 2,2 23 12 37 20 ENE 5 0 0,0
20.02.2018 19:00:00 -3,9 -6,6 -0,4 0,1 0,5 2,2 22 12 32 17 NE 6 0 0,0
20.02.2018 18:00:00 -3,3 -6,8 -0,3 0,1 0,5 2,2 21 11 33 18 NE 7 14 0,0
20.02.2018 17:00:00 -2,5 -6,4 -0,3 0,1 0,5 2,2 16 9 24 13 NE 9 45 0,0
20.02.2018 16:00:00 -1,8 -6,2 -0,4 0,1 0,5 2,2 14 7 21 11 NE 10 60 0,0
20.02.2018 15:00:00 -1,2 -6,7 -0,6 0,1 0,5 2,2 12 6 20 11 ENE 10 60 0,0
20.02.2018 14:00:00 -1,7 -7,5 -0,9 0,1 0,5 2,2 11 6 19 11 NNE 11 60 0,0
20.02.2018 13:00:00 -2,5 -7,0 -1,1 0,1 0,5 2,2 11 6 15 8 NE 12 55 0,0
20.02.2018 12:00:00 -2,5 -5,4 -1,2 0,1 0,5 2,2 8 5 23 12 NE 8 50 0,0
20.02.2018 11:00:00 -3,8 -5,7 -1,4 0,1 0,5 2,2 14 7 32 18 ENE 6 39 0,0
20.02.2018 10:00:00 -4,4 -5,8 -1,5 0,1 0,5 2,3 19 10 28 15 E 4,2 50 0,0
20.02.2018 09:00:00 -4,9 -6,1 -1,6 0,1 0,5 2,3 18 10 26 14 E 4,1 26 0,0
20.02.2018 08:00:00 -5,3 -6,6 -1,8 0,1 0,5 2,3 19 10 25 14 E 6 0 0,0
20.02.2018 07:00:00 -5,3 -6,5 -1,9 0,1 0,5 2,3 16 9 23 12 E 4,4 0 0,0
20.02.2018 06:00:00 -5,0 -6,3 -1,9 0,1 0,5 2,3 15 8 21 11 E 6 0 0,0
20.02.2018 05:00:00 -5,0 -6,3 -1,9 0,1 0,5 2,3 13 7 15 8 ENE 6 0 0,0
20.02.2018 04:00:00 -5,1 -6,4 -1,7 0,1 0,5 2,3 12 6 14 8 E 8 0 0,0
20.02.2018 03:00:00 -4,6 -6,2 -1,5 0,1 0,5 2,3 9 5 10 5 NNE 10 0 0,0
20.02.2018 02:00:00 -4,7 -5,9 -1,3 0,1 0,5 2,3 4 2 6 3 NNE 9 0 0,0
20.02.2018 01:00:00 -5,0 -6,3 -1,1 0,1 0,5 2,3 4 2 7 4 SSE 9 0 0,0
20.02.2018 00:00:00 -4,5 -5,8 -1,0 0,1 0,5 2,3 4 2 7 4 ENE 12 0 0,0
19.02.2018 23:00:00 -4,5 -5,9 -0,9 0,1 0,5 2,3 2 1 5 3 NW 10 0 0,0
19.02.2018 22:00:00 -4,2 -5,6 -0,8 0,1 0,5 2,3 3 2 7 4 SW 9 0 0,0
19.02.2018 21:00:00 -4,1 -5,6 -0,7 0,1 0,5 2,3 6 3 10 5 S 9 0 0,0
19.02.2018 20:00:00 -3,8 -5,2 -0,5 0,1 0,5 2,3 8 4 10 5 S 7 0 0,0
19.02.2018 19:00:00 -3,4 -5,2 -0,4 0,1 0,5 2,3 5 3 8 4 SE 9 0 0,0
19.02.2018 18:00:00 -2,7 -5,5 -0,4 0,1 0,5 2,3 4 2 7 4 S 16 0 0,0
19.02.2018 17:00:00 -2,3 -5,7 -0,4 0,1 0,5 2,3 7 4 10 5 SSW 17 0 0,0
19.02.2018 16:00:00 -1,8 -5,5 -0,4 0,1 0,5 2,3 7 4 14 8 SW 20 21 0,0
19.02.2018 15:00:00 -1,7 -5,5 -0,5 0,1 0,5 2,3 10 5 19 10 S 20 11 0,0
19.02.2018 14:00:00 -2,1 -5,5 -0,7 0,1 0,5 2,3 11 6 22 12 S 22 13 0,0
19.02.2018 13:00:00 -2,0 -5,5 -0,8 0,1 0,5 2,3 15 8 23 12 S 14 58 0,0
19.02.2018 12:00:00 -3,0 -5,8 -0,9 0,1 0,5 2,3 17 9 29 16 S 8 51 0,0
19.02.2018 11:00:00 -3,8 -5,7 -0,8 0,1 0,5 2,3 19 11 31 17 S 11 49 0,0
19.02.2018 10:00:00 -4,7 -5,8 -1,1 0,1 0,5 2,3 22 12 31 17 S 7 3 0,0
19.02.2018 09:00:00 -5,2 -6,2 -1,2 0,1 0,5 2,3 19 11 35 19 SSW 5 0 0,0
19.02.2018 08:00:00 -5,4 -6,3 -1,2 0,1 0,5 2,3 24 13 37 20 SSW 4,1 0 0,0
19.02.2018 07:00:00 -5,3 -6,4 -1,2 0,1 0,5 2,3 23 13 35 19 SSW 7 0 0,0
19.02.2018 06:00:00 -5,9 -6,6 -1,2 0,1 0,5 2,3 18 10 25 14 SSW 0,8 0 0,0
19.02.2018 05:00:00 -5,7 -6,3 -1,2 0,1 0,5 2,3 22 12 33 18 S 0,1 0 0,0
19.02.2018 04:00:00 -5,0 -6,3 -1,2 0,1 0,5 2,3 22 12 30 16 S 7 0 0,0
19.02.2018 03:00:00 -4,8 -6,1 -1,2 0,1 0,5 2,3 22 12 35 19 S 7 0 0,0
19.02.2018 02:00:00 -4,9 -6,0 -1,1 0,1 0,5 2,3 23 12 33 18 S 6 0 0,0
19.02.2018 01:00:00 -4,4 -5,9 -1,1 0,1 0,5 2,3 28 15 39 21 S 11 0 0,0
19.02.2018 00:00:00 -4,3 -5,8 -1,0 0,1 0,5 2,3 27 14 37 20 S 8 0 0,0
18.02.2018 23:00:00 -3,6 -5,7 -1,0 0,1 0,5 2,3 29 16 41 22 S 9 0 0,0
18.02.2018 22:00:00 -3,1 -5,6 -0,9 0,1 0,5 2,3 26 14 33 18 S 11 0 0,0
18.02.2018 21:00:00 -2,9 -5,6 -0,8 0,1 0,5 2,3 26 14 34 18 S 13 0 0,0
18.02.2018 20:00:00 -2,9 -5,8 -0,7 0,1 0,5 2,3 23 12 29 15 S 14 0 0,0
18.02.2018 19:00:00 -2,5 -5,5 -0,6 0,1 0,5 2,3 19 11 26 14 S 14 0 0,0
18.02.2018 18:00:00 -2,1 -5,4 -0,6 0,1 0,5 2,3 14 8 21 11 SSE 16 0 0,0
18.02.2018 17:00:00 -1,2 -5,2 -0,7 0,1 0,5 2,3 16 8 21 11 SSE 22 18 0,0
18.02.2018 16:00:00 -0,3 -5,3 -0,8 0,1 0,5 2,3 14 7 23 13 SSE 17 60 0,0
18.02.2018 15:00:00 -0,1 -5,0 -1,0 0,1 0,5 2,3 14 8 23 12 S 10 60 0,0
18.02.2018 14:00:00 -0,7 -5,2 -1,2 0,1 0,5 2,3 16 8 26 14 S 19 60 0,0
18.02.2018 13:00:00 -1,2 -4,9 -1,4 0,1 0,5 2,3 16 9 27 15 S 10 60 0,0
18.02.2018 12:00:00 -2,0 -5,3 -1,6 0,1 0,5 2,3 22 12 33 18 S 14 60 0,0
18.02.2018 11:00:00 -2,8 -5,7 -1,7 0,1 0,5 2,3 26 14 36 19 S 10 60 0,0
18.02.2018 10:00:00 -3,4 -5,5 -1,8 0,1 0,5 2,3 24 13 38 21 S 8 60 0,0
18.02.2018 09:00:00 -3,9 -5,8 -1,8 0,1 0,5 2,3 27 14 37 20 S 8 51 0,0
18.02.2018 08:00:00 -4,8 -6,1 -1,8 0,1 0,5 2,3 26 14 33 18 S 5 0 0,0
18.02.2018 07:00:00 -4,7 -6,0 -1,7 0,1 0,5 2,3 23 12 28 15 S 6 0 0,0
18.02.2018 06:00:00 -4,8 -6,1 -1,6 0,1 0,5 2,3 22 12 27 15 SSE 7 0 0,0
18.02.2018 05:00:00 -4,6 -5,8 -1,5 0,1 0,5 2,3 21 12 26 14 SSE 7 0 0,0
18.02.2018 04:00:00 -4,6 -5,3 -1,4 0,1 0,5 2,3 21 11 26 14 SSE 2,5 0 0,0
18.02.2018 03:00:00 -4,6 -5,5 -1,3 0,1 0,5 2,3 21 11 27 15 SE 6 0 0,0
18.02.2018 02:00:00 -4,3 -4,9 -1,1 0,1 0,5 2,3 22 12 27 15 SE 1,4 0 0,0
18.02.2018 01:00:00 -4,3 -5,6 -1,0 0,1 0,5 2,3 22 12 26 14 SE 5 0 0,0
18.02.2018 00:00:00 -4,0 -5,4 -1,0 0,1 0,5 2,3 24 13 29 16 ESE 7 0 0,0
17.02.2018 23:00:00 -3,9 -5,0 -0,8 0,1 0,5 2,3 23 13 29 15 ESE 6 0 0,0
17.02.2018 22:00:00 -4,1 -5,4 -0,7 0,1 0,5 2,3 19 11 27 14 E 6 0 0,0
17.02.2018 21:00:00 -3,9 -6,2 -0,6 0,1 0,5 2,3 18 10 29 16 E 12 0 0,0
17.02.2018 20:00:00 -3,7 -6,6 -0,6 0,1 0,5 2,3 21 12 29 16 E 15 0 0,0
17.02.2018 19:00:00 -3,6 -6,3 -0,6 0,1 0,5 2,3 22 12 28 15 ENE 14 0 0,0
17.02.2018 18:00:00 -3,2 -5,8 -0,6 0,1 0,5 2,3 19 10 25 14 ENE 11 0 0,0
17.02.2018 17:00:00 -2,6 -5,6 -0,6 0,1 0,5 2,3 12 7 19 11 ENE 18 0 0,0
17.02.2018 16:00:00 -2,3 -5,8 -0,7 0,1 0,5 2,3 11 6 24 13 E 16 0 0,0
17.02.2018 15:00:00 -2,2 -5,2 -0,8 0,1 0,5 2,3 12 7 25 13 E 13 0 0,0
17.02.2018 14:00:00 -2,2 -5,7 -1,0 0,1 0,5 2,3 16 9 29 15 E 15 0 0,0
17.02.2018 13:00:00 -2,4 -5,9 -1,1 0,1 0,5 2,3 19 10 37 20 ESE 12 0 0,0
17.02.2018 12:00:00 -2,8 -5,9 -1,2 0,1 0,5 2,3 27 15 44 24 ESE 11 0 0,0
17.02.2018 11:00:00 -3,0 -5,8 -1,4 0,1 0,5 2,3 27 14 43 23 ESE 13 0 0,0
17.02.2018 10:00:00 -3,3 -6,0 -1,6 0,1 0,5 2,3 27 15 40 22 ESE 12 0 0,0
17.02.2018 09:00:00 -3,4 -5,5 -1,7 0,1 0,5 2,3 26 14 38 21 ESE 11 0 0,0
17.02.2018 08:00:00 -3,5 -5,8 -1,9 0,1 0,5 2,3 24 13 35 19 ESE 20 0 0,0
17.02.2018 07:00:00 -3,4 -5,8 -2,0 0,1 0,5 2,3 22 12 32 17 ESE 18 0 0,0
17.02.2018 06:00:00 -3,2 -5,5 -2,0 0,1 0,5 2,3 23 12 31 17 ESE 14 0 0,0
17.02.2018 05:00:00 -3,1 -5,1 -2,0 0,1 0,5 2,3 20 11 24 13 ESE 11 0 0,0
17.02.2018 04:00:00 -3,1 -5,1 -1,9 0,1 0,5 2,3 18 10 22 12 ESE 10 0 0,0
17.02.2018 03:00:00 -3,1 -5,0 -1,7 0,1 0,5 2,3 14 8 16 9 ESE 10 0 0,0
17.02.2018 02:00:00 -3,5 -5,1 -1,5 0,1 0,5 2,3 11 6 13 7 SE 8 0 0,0
17.02.2018 01:00:00 -3,0 -4,7 -1,3 0,1 0,5 2,3 6 3 6 4 SE 9 0 0,0
17.02.2018 00:00:00 -2,8 -4,7 -1,0 0,1 0,5 2,3 4 2 10 5 W 10 0 0,0
16.02.2018 23:00:00 -3,1 -4,5 -0,8 0,1 0,5 2,3 10 6 18 10 WNW 12 0 0,0
16.02.2018 22:00:00 -2,9 -4,3 -0,6 0,1 0,5 2,3 13 7 16 9 W 16 0 0,0
16.02.2018 21:00:00 -2,9 -4,2 -0,4 0,1 0,5 2,3 14 8 18 10 W 19 0 0,0
16.02.2018 20:00:00 -2,8 -4,1 -0,3 0,1 0,5 2,3 14 8 23 13 W 23 0 0,0
16.02.2018 19:00:00 -2,5 -4,0 -0,2 0,1 0,5 2,3 18 10 25 14 W 24 0 0,0
16.02.2018 18:00:00 -2,2 -3,8 -0,1 0,1 0,5 2,3 16 9 24 13 W 28 1 0,0
16.02.2018 17:00:00 -1,4 -2,6 -0,2 0,1 0,5 2,3 15 8 32 17 W 22 33 0,0
16.02.2018 16:00:00 -0,9 -2,1 -0,2 0,1 0,5 2,3 21 11 31 17 W 25 46 0,0
16.02.2018 15:00:00 -1,0 -1,9 -0,2 0,1 0,5 2,3 23 13 36 19 WSW 23 23 0,0
16.02.2018 14:00:00 -1,1 -1,8 -0,3 0,1 0,5 2,3 22 12 41 22 W 12 10 0,0
16.02.2018 13:00:00 -1,1 -1,6 -0,3 0,1 0,5 2,3 24 13 39 21 W 7 4 0,0
16.02.2018 12:00:00 -1,3 -1,7 -0,4 0,1 0,5 2,3 22 12 41 22 W 1,5 0 0,0
16.02.2018 11:00:00 -1,7 -2,2 -0,4 0,1 0,5 2,3 22 12 39 21 W 6 0 0,0
16.02.2018 10:00:00 -1,8 -2,3 -0,4 0,1 0,5 2,3 24 13 41 22 WSW 1,3 0 0,0
16.02.2018 09:00:00 -1,6 -1,9 -0,4 0,1 0,5 2,3 23 13 37 20 W 0,1 0 0,0
16.02.2018 08:00:00 -1,7 -2,1 -0,4 0,1 0,5 2,3 21 11 31 17 W 0,1 0 0,0
16.02.2018 07:00:00 -1,9 -2,4 -0,3 0,1 0,5 2,3 20 11 29 16 W 0,2 0 0,0
16.02.2018 06:00:00 -2,3 -2,8 -0,2 0,1 0,5 2,3 19 10 25 14 W 0,1 0 0,0
16.02.2018 05:00:00 -2,3 -3,0 -0,3 0,1 0,5 2,3 18 10 23 13 W 8 0 0,0
16.02.2018 04:00:00 -1,4 -1,9 -0,3 0,1 0,5 2,3 15 8 24 13 W 0,1 0 0,0
16.02.2018 03:00:00 -0,9 -1,3 -0,2 0,1 0,5 2,3 16 8 30 16 W 0,1 0 0,0
16.02.2018 02:00:00 -0,5 -0,9 -0,3 0,1 0,5 2,3 17 9 28 15 WNW 0,2 0 0,0
16.02.2018 01:00:00 -0,2 -0,5 -0,3 0,1 0,5 2,3 19 10 36 20 WNW 0,8 0 0,0
16.02.2018 00:00:00 0,0 -0,3 -0,3 0,1 0,5 2,3 22 12 40 21 WNW 0,8 0 0,0
15.02.2018 23:00:00 0,1 -0,2 -0,4 0,1 0,5 2,3 20 11 35 19 W 0,1 0 0,0
15.02.2018 22:00:00 0,0 -0,1 -0,4 0,1 0,5 2,3 21 11 32 17 W 0,1 0 0,0
15.02.2018 21:00:00 0,0 -0,2 -0,5 0,1 0,5 2,3 23 13 30 16 WSW 0,1 0 0,1
15.02.2018 20:00:00 -0,3 -0,5 -0,6 0,1 0,5 2,3 18 10 27 14 WSW 0,1 0 0,0
15.02.2018 19:00:00 -0,6 -1,0 -0,7 0,1 0,5 2,3 21 11 29 15 WSW 0,1 0 0,1
15.02.2018 18:00:00 -1,1 -1,4 -0,8 0,1 0,5 2,3 23 13 30 16 WSW 0,1 0 0,0
15.02.2018 17:00:00 -1,6 -2,0 -0,8 0,1 0,5 2,3 22 12 29 16 SW 0,1 0 0,6
15.02.2018 16:00:00 -2,4 -2,8 -0,8 0,1 0,5 2,3 22 12 36 19 SW 0,1 0 0,0
15.02.2018 15:00:00 -3,1 -3,6 -1,0 0,1 0,5 2,3 28 15 40 22 SSW 0,2 0 0,1
15.02.2018 14:00:00 -3,5 -4,0 -0,9 0,1 0,5 2,3 31 17 46 25 SSW 0,2 0 0,2
15.02.2018 13:00:00 -4,1 -4,7 -1,1 0,1 0,5 2,3 31 17 54 29 SSW 0,3 0 0,2
15.02.2018 12:00:00 -4,4 -5,1 -1,3 0,1 0,5 2,3 44 24 57 31 S 1,1 0 0,1

tt = Température de l'air
td = dewpoint
tt 5cm = Température de l'air 5cm
tt -5cm = Température de l'air -5cm
tt -20cm = Température de l'air -20cm
tt -100cm = Température de l'air -100cm
ff = Vitesse du vent
fx = gusts
dd = Direction du vent
vv = visibility
sd = Ensoleillement
rr = Quantités de précipitations

stations d'obs. à proximité